Time;durP1;ratioP1;P1;durP2;ratioP2;P2;SDS_P1;SDS_P2;PMS_P1;PMS_P2;Temp;Humidity;BMP_temperature;BMP_pressure;BME280_temperature;BME280_humidity;BME280_pressure;Samples;Min_cycle;Max_cycle;Signal;HPM_P1;HPM_P2
2021/12/28 00:01:08;;;;;;;7.72;4.97;;;;;;;0.65;97.47;97056.96;1697790;84;21411;-76
2021/12/28 00:03:37;;;;;;;7.80;5.28;;;;;;;0.69;97.32;97055.20;1696150;84;21011;-75
2021/12/28 00:06:05;;;;;;;7.87;5.40;;;;;;;0.67;97.42;97061.75;1698558;84;20968;-76
2021/12/28 00:08:32;;;;;;;11.40;7.65;;;;;;;0.67;97.42;97066.08;1751450;81;21496;-76
2021/12/28 00:10:58;;;;;;;11.55;8.05;;;;;;;0.68;97.12;97066.51;1757106;81;20989;-76
2021/12/28 00:13:26;;;;;;;11.90;8.00;;;;;;;0.67;97.45;97068.69;1755185;81;20997;-76
2021/12/28 00:18:24;;;;;;;10.70;7.53;;;;;;;0.71;97.27;97073.87;1758414;80;20986;-74
2021/12/28 00:20:54;;;;;;;9.53;7.25;;;;;;;0.69;96.94;97072.15;1754631;80;20957;-75
2021/12/28 00:23:28;;;;;;;10.72;6.80;;;;;;;0.64;96.91;97079.58;1754828;80;21017;-75
2021/12/28 00:25:55;;;;;;;9.15;6.50;;;;;;;0.65;96.83;97086.52;1755292;79;21486;-75
2021/12/28 00:28:22;;;;;;;11.28;8.00;;;;;;;0.67;96.91;97078.70;1753674;80;21029;-75
2021/12/28 00:30:49;;;;;;;14.10;10.58;;;;;;;0.73;96.97;97088.21;1756502;80;21509;-75
2021/12/28 00:33:19;;;;;;;11.97;8.63;;;;;;;0.73;96.84;97085.18;1751645;80;21435;-75
2021/12/28 00:35:46;;;;;;;8.88;6.35;;;;;;;0.73;96.73;97083.88;1755059;80;21029;-75
2021/12/28 00:38:18;;;;;;;9.40;6.50;;;;;;;0.71;96.87;97090.82;1754046;80;20997;-75
2021/12/28 00:40:48;;;;;;;10.20;6.70;;;;;;;0.71;96.85;97080.39;1760623;80;21065;-75
2021/12/28 00:43:16;;;;;;;7.40;5.92;;;;;;;0.73;97.11;97090.82;1757210;80;21025;-75
2021/12/28 00:45:43;;;;;;;8.65;5.65;;;;;;;0.76;97.43;97093.42;1754393;81;21661;-75
2021/12/28 00:48:09;;;;;;;9.15;6.28;;;;;;;0.81;97.66;97094.27;1768712;81;21013;-75
2021/12/28 00:50:37;;;;;;;8.83;6.08;;;;;;;0.81;97.53;97095.57;1769275;81;21045;-75
2021/12/28 00:53:04;;;;;;;8.78;6.35;;;;;;;0.83;97.63;97092.96;1753927;81;21033;-75
2021/12/28 00:55:31;;;;;;;8.40;6.00;;;;;;;0.83;97.76;97088.59;1739208;82;21052;-75
2021/12/28 00:57:57;;;;;;;9.93;6.83;;;;;;;0.81;97.56;97096.00;1739317;82;20998;-75
2021/12/28 01:00:29;;;;;;;11.35;7.37;;;;;;;0.77;97.31;97092.55;1739051;82;21025;-75
2021/12/28 01:02:57;;;;;;;10.75;6.60;;;;;;;0.75;97.42;97100.38;1751718;81;21040;-75
2021/12/28 01:05:25;;;;;;;11.85;7.45;;;;;;;0.74;97.27;97096.46;1767527;81;21033;-75
2021/12/28 01:07:54;;;;;;;11.05;7.17;;;;;;;0.74;97.25;97091.25;1769635;81;21411;-76
2021/12/28 01:10:26;;;;;;;9.63;6.97;;;;;;;0.75;97.36;97100.83;1769821;81;21447;-76
2021/12/28 01:12:55;;;;;;;12.40;7.87;;;;;;;0.71;97.16;97100.41;1769690;81;21029;-79
2021/12/28 01:15:25;;;;;;;9.18;6.72;;;;;;;0.71;97.03;97089.52;1755650;81;21013;-76
2021/12/28 01:17:51;;;;;;;10.65;7.15;;;;;;;0.65;96.54;97099.56;1739342;82;21060;-76
2021/12/28 01:20:19;;;;;;;10.03;7.03;;;;;;;0.56;96.41;97093.08;1739162;82;21064;-76
2021/12/28 01:22:46;;;;;;;11.60;7.60;;;;;;;0.54;96.51;97092.66;1739202;82;20985;-76
2021/12/28 01:25:16;;;;;;;10.08;6.55;;;;;;;0.51;96.80;97102.20;1747519;81;20982;-76
2021/12/28 01:27:44;;;;;;;11.80;7.55;;;;;;;0.51;97.00;97100.91;1767065;81;20982;-77
2021/12/28 01:30:12;;;;;;;9.25;6.40;;;;;;;0.55;97.07;97096.57;1770081;80;21005;-76
2021/12/28 01:32:40;;;;;;;9.28;6.90;;;;;;;0.57;96.73;97096.11;1769746;81;21432;-76
2021/12/28 01:35:10;;;;;;;9.75;7.08;;;;;;;0.60;96.83;97096.53;1769550;80;21517;-76
2021/12/28 01:37:38;;;;;;;8.60;6.70;;;;;;;0.60;96.94;97094.81;1769724;81;21001;-76
2021/12/28 01:40:10;;;;;;;8.00;6.22;;;;;;;0.62;96.86;97092.20;1741643;81;21017;-76
2021/12/28 01:43:12;;;;;;;8.63;6.60;;;;;;;0.65;96.99;97089.55;1739243;82;21080;-75
2021/12/28 01:45:44;;;;;;;10.72;6.97;;;;;;;0.69;97.24;97092.58;1739419;82;21482;-75
2021/12/28 01:48:15;;;;;;;9.45;7.17;;;;;;;0.75;97.36;97095.16;1763814;81;21037;-75
2021/12/28 01:50:43;;;;;;;10.82;7.78;;;;;;;0.76;97.03;97093.42;1769833;80;20981;-75
2021/12/28 01:53:10;;;;;;;10.55;7.33;;;;;;;0.72;97.06;97093.89;1769675;81;21037;-76
2021/12/28 01:55:40;;;;;;;9.70;7.12;;;;;;;0.71;97.12;97097.80;1769555;81;21096;-76
2021/12/28 01:58:07;;;;;;;11.78;8.08;;;;;;;0.67;97.14;97096.08;1746100;80;21057;-76
2021/12/28 02:00:35;;;;;;;9.30;6.97;;;;;;;0.66;97.46;97093.89;1739382;82;21050;-76
2021/12/28 02:03:08;;;;;;;10.03;7.60;;;;;;;0.68;97.61;97093.89;1739143;82;21009;-76
2021/12/28 02:05:36;;;;;;;10.70;7.58;;;;;;;0.65;97.30;97096.95;1739558;82;21008;-75
2021/12/28 02:08:03;;;;;;;10.20;7.50;;;;;;;0.64;97.40;97098.26;1739266;82;21010;-75
2021/12/28 02:10:30;;;;;;;10.93;7.78;;;;;;;0.64;97.49;97090.02;1763016;81;21188;-76
2021/12/28 02:12:57;;;;;;;9.33;6.92;;;;;;;0.62;97.00;97096.95;1769749;81;21451;-76
2021/12/28 02:15:23;;;;;;;10.28;7.20;;;;;;;0.60;97.27;97098.72;1769734;81;21466;-76
2021/12/28 02:17:50;;;;;;;11.95;7.78;;;;;;;0.60;97.31;97106.97;1769604;81;20998;-76
2021/12/28 02:20:20;;;;;;;10.70;7.53;;;;;;;0.61;97.27;97105.66;1769790;81;21001;-76
2021/12/28 02:22:48;;;;;;;11.00;8.10;;;;;;;0.59;97.19;97107.84;1745033;81;21080;-76
2021/12/28 02:25:17;;;;;;;10.60;7.35;;;;;;;0.59;97.07;97100.02;1751642;79;20955;-75
2021/12/28 02:27:45;;;;;;;11.28;7.62;;;;;;;0.59;96.99;97098.30;1775204;81;21053;-76
2021/12/28 02:30:19;;;;;;;11.83;7.28;;;;;;;0.59;97.27;97100.91;1775009;80;21022;-77
2021/12/28 02:32:48;;;;;;;11.33;7.97;;;;;;;0.59;97.09;97100.02;1775302;81;20986;-75
2021/12/28 02:35:20;;;;;;;10.63;7.25;;;;;;;0.60;97.06;97102.63;1744743;80;21094;-75
2021/12/28 02:37:47;;;;;;;10.85;7.30;;;;;;;0.57;96.91;97093.50;1739201;82;21676;-76
2021/12/28 02:40:18;;;;;;;9.75;7.33;;;;;;;0.54;96.71;97100.48;1741882;82;21388;-76
2021/12/28 02:42:45;;;;;;;9.33;6.60;;;;;;;0.54;96.80;97088.29;1757138;81;21451;-74
2021/12/28 02:45:26;;;;;;;11.60;6.83;;;;;;;0.55;96.67;97087.87;1764405;80;20994;-74
2021/12/28 02:47:53;;;;;;;9.70;6.67;;;;;;;0.57;96.81;97093.50;1764303;81;21018;-76
2021/12/28 02:50:25;;;;;;;12.82;6.78;;;;;;;0.62;96.76;97089.59;1751397;81;21033;-76
2021/12/28 02:52:52;;;;;;;9.78;7.03;;;;;;;0.62;96.75;97089.13;1734218;83;21009;-74
2021/12/28 02:55:24;;;;;;;8.95;6.92;;;;;;;0.67;97.16;97086.95;1754312;80;20982;-74
2021/12/28 02:57:58;;;;;;;9.23;6.53;;;;;;;0.65;96.57;97084.34;1771525;80;21007;-74
2021/12/28 03:00:38;;;;;;;9.75;6.20;;;;;;;0.66;96.78;97086.06;1760668;81;21022;-74
2021/12/28 03:03:10;;;;;;;11.03;6.87;;;;;;;0.69;96.90;97085.19;1733336;83;21411;-74
2021/12/28 03:05:40;;;;;;;11.73;6.20;;;;;;;0.74;97.41;97078.20;1734183;82;21006;-75
2021/12/28 03:08:08;;;;;;;9.40;6.97;;;;;;;0.75;97.50;97080.81;1739888;81;21450;-75
2021/12/28 03:10:38;;;;;;;9.98;6.97;;;;;;;0.78;97.92;97084.72;1748496;81;21040;-75
2021/12/28 03:13:07;;;;;;;9.58;6.33;;;;;;;0.79;97.60;97079.92;1734232;83;21494;-75
2021/12/28 03:15:34;;;;;;;12.30;7.30;;;;;;;0.81;97.50;97084.26;1734197;83;21049;-75
2021/12/28 03:18:01;;;;;;;10.98;7.50;;;;;;;0.76;97.13;97086.91;1734363;82;21388;-75
2021/12/28 03:20:27;;;;;;;10.50;7.25;;;;;;;0.75;97.31;97094.31;1745765;81;21458;-75
2021/12/28 03:22:54;;;;;;;11.45;7.95;;;;;;;0.71;97.13;97096.04;1764363;81;20954;-75
2021/12/28 03:25:20;;;;;;;10.15;7.42;;;;;;;0.68;97.07;97098.69;1776468;80;20971;-75
2021/12/28 03:27:47;;;;;;;10.13;7.25;;;;;;;0.67;97.17;97099.56;1798013;80;21455;-75
2021/12/28 03:30:16;;;;;;;13.18;7.58;;;;;;;0.67;97.16;97099.56;1790857;80;20939;-75
2021/12/28 03:32:44;;;;;;;13.43;7.28;;;;;;;0.64;96.86;97101.75;1706188;84;20999;-75
2021/12/28 03:35:14;;;;;;;10.53;7.50;;;;;;;0.64;96.90;97100.87;1713063;83;21434;-75
2021/12/28 03:37:41;;;;;;;11.08;7.28;;;;;;;0.64;96.92;97099.14;1707986;84;21039;-76
2021/12/28 03:40:13;;;;;;;10.55;7.10;;;;;;;0.61;96.96;97094.34;1702573;83;21059;-76
2021/12/28 03:42:40;;;;;;;10.68;6.90;;;;;;;0.63;97.12;97092.62;1702042;84;20994;-76
2021/12/28 03:45:10;;;;;;;11.30;7.40;;;;;;;0.62;97.08;97094.80;1765159;80;21047;-75
2021/12/28 03:47:37;;;;;;;10.18;7.15;;;;;;;0.61;97.14;97091.31;1778640;80;20997;-75
2021/12/28 03:50:08;;;;;;;20.00;11.85;;;;;;;0.61;96.93;97087.83;1775306;81;20994;-76
2021/12/28 03:52:35;;;;;;;23.90;14.00;;;;;;;0.57;96.96;97083.08;1775554;81;20969;-75
2021/12/28 03:55:03;;;;;;;23.50;14.18;;;;;;;0.57;96.62;97084.80;1775366;80;21045;-75
2021/12/28 03:57:30;;;;;;;23.85;14.23;;;;;;;0.54;96.43;97089.59;1755108;80;21430;-75
2021/12/28 03:59:57;;;;;;;22.93;13.88;;;;;;;0.52;96.94;97080.92;1744643;82;21763;-75
2021/12/28 04:02:24;;;;;;;24.52;13.85;;;;;;;0.53;96.89;97083.95;1744771;81;21025;-75
2021/12/28 04:04:51;;;;;;;19.02;11.65;;;;;;;0.56;96.82;97081.77;1768063;81;21060;-76
2021/12/28 04:07:20;;;;;;;21.57;12.47;;;;;;;0.57;96.46;97086.98;1775463;81;20997;-76
2021/12/28 04:12:18;;;;;;;15.25;10.28;;;;;;;0.63;96.98;97093.47;1744879;82;20986;-76
2021/12/28 04:14:45;;;;;;;16.35;10.40;;;;;;;0.68;96.84;97096.50;1744804;82;21068;-76
2021/12/28 04:17:12;;;;;;;24.52;13.78;;;;;;;0.68;96.91;97093.89;1744783;82;20981;-76
2021/12/28 04:19:38;;;;;;;23.42;13.30;;;;;;;0.70;97.04;97095.61;1744932;82;21017;-76
2021/12/28 04:22:06;;;;;;;23.35;13.32;;;;;;;0.69;96.92;97093.89;1745459;81;21458;-76
2021/12/28 04:24:33;;;;;;;19.62;12.18;;;;;;;0.75;97.36;97103.44;1748788;79;21435;-76
2021/12/28 04:27:00;;;;;;;14.55;8.68;;;;;;;0.74;97.10;97099.95;1748639;79;21048;-76
2021/12/28 04:29:26;;;;;;;13.48;8.50;;;;;;;0.74;97.28;97107.77;1744826;82;21021;-77
2021/12/28 04:31:53;;;;;;;13.62;8.35;;;;;;;0.76;97.27;97109.95;1744959;82;21029;-76
2021/12/28 04:34:20;;;;;;;12.10;7.67;;;;;;;0.80;97.14;97113.41;1772966;81;21111;-76
2021/12/28 04:36:47;;;;;;;9.75;6.83;;;;;;;0.83;97.13;97114.67;1775374;80;21028;-76
2021/12/28 04:39:14;;;;;;;10.30;6.45;;;;;;;0.85;97.01;97115.98;1775522;80;21052;-76
2021/12/28 04:41:40;;;;;;;7.35;4.95;;;;;;;0.83;95.96;97117.74;1780864;80;21061;-75
2021/12/28 04:44:09;;;;;;;8.95;5.72;;;;;;;0.78;95.53;97114.71;1778411;80;21009;-75
2021/12/28 04:46:36;;;;;;;7.97;4.83;;;;;;;0.76;95.69;97116.47;1750545;80;21070;-75
2021/12/28 04:49:03;;;;;;;6.80;4.35;;;;;;;0.73;94.03;97112.99;1750224;81;21021;-75
2021/12/28 04:51:30;;;;;;;7.25;4.92;;;;;;;0.68;94.16;97118.66;1750021;81;21086;-75
2021/12/28 04:54:00;;;;;;;6.67;4.47;;;;;;;0.63;93.74;97117.39;1754580;80;21525;-75
2021/12/28 04:56:26;;;;;;;6.78;4.53;;;;;;;0.60;93.95;97120.88;1781003;80;21005;-75
2021/12/28 04:58:53;;;;;;;5.37;4.20;;;;;;;0.58;94.31;97124.37;1780842;80;20985;-76
2021/12/28 05:01:20;;;;;;;5.72;4.37;;;;;;;0.55;93.83;97111.34;1781137;80;21029;-75
2021/12/28 05:03:46;;;;;;;9.58;5.80;;;;;;;0.54;94.39;97113.06;1757577;80;20976;-75
2021/12/28 05:06:14;;;;;;;10.28;6.40;;;;;;;0.55;94.82;97113.52;1750636;81;21008;-76
2021/12/28 05:08:41;;;;;;;9.73;6.20;;;;;;;0.56;94.97;97118.27;1757627;80;21036;-75
2021/12/28 05:11:07;;;;;;;8.53;5.10;;;;;;;0.57;94.87;97116.09;1780761;80;21442;-76
2021/12/28 05:13:34;;;;;;;8.15;5.40;;;;;;;0.55;94.74;97120.45;1760309;80;21001;-76
2021/12/28 05:16:00;;;;;;;8.85;5.92;;;;;;;0.54;94.81;97118.27;1749942;81;21135;-76
2021/12/28 05:18:27;;;;;;;10.58;6.87;;;;;;;0.54;95.15;97117.42;1749919;82;21084;-77
2021/12/28 05:20:53;;;;;;;11.55;7.42;;;;;;;0.58;95.49;97125.67;1753893;81;21029;-77
2021/12/28 05:23:20;;;;;;;11.73;7.58;;;;;;;0.59;95.38;97116.97;1780992;80;21035;-77
2021/12/28 05:25:46;;;;;;;16.48;9.75;;;;;;;0.64;95.60;97117.81;1774506;79;20951;-77
2021/12/28 05:28:13;;;;;;;15.32;9.20;;;;;;;0.64;95.32;97128.25;1765141;80;21428;-77
2021/12/28 05:30:39;;;;;;;20.72;11.48;;;;;;;0.61;95.33;97130.86;1745547;82;21001;-77
2021/12/28 05:33:06;;;;;;;21.25;12.37;;;;;;;0.64;95.64;97132.16;1748422;82;21001;-77
2021/12/28 05:35:32;;;;;;;22.77;12.65;;;;;;;0.64;96.07;97130.86;1750168;82;21012;-75
2021/12/28 05:37:59;;;;;;;21.27;12.47;;;;;;;0.63;95.55;97137.80;1775820;80;20978;-74
2021/12/28 05:40:25;;;;;;;22.40;11.83;;;;;;;0.66;95.92;97131.70;1780710;80;21083;-74
2021/12/28 05:42:52;;;;;;;16.82;11.33;;;;;;;0.68;95.60;97133.89;1780968;80;20973;-75
2021/12/28 05:45:19;;;;;;;20.12;11.35;;;;;;;0.71;95.67;97135.62;1780931;80;21005;-76
2021/12/28 05:47:46;;;;;;;19.00;11.12;;;;;;;0.73;95.87;97140.38;1780801;80;21032;-75
2021/12/28 05:50:13;;;;;;;16.40;10.50;;;;;;;0.78;95.85;97139.92;1755021;80;21000;-75
2021/12/28 05:52:39;;;;;;;15.15;9.98;;;;;;;0.81;95.99;97146.44;1755871;81;21336;-76
2021/12/28 05:55:07;;;;;;;13.93;8.13;;;;;;;0.87;95.99;97146.86;1780745;80;21462;-76
2021/12/28 05:57:33;;;;;;;11.95;7.42;;;;;;;0.91;96.19;97147.25;1780974;80;21017;-76
2021/12/28 05:59:59;;;;;;;9.23;6.28;;;;;;;0.98;96.31;97150.70;1780677;80;21005;-75
2021/12/28 06:02:26;;;;;;;9.10;6.72;;;;;;;1.00;96.21;97150.27;1749973;80;21438;-76
2021/12/28 06:04:52;;;;;;;10.50;7.12;;;;;;;1.01;95.99;97150.70;1750163;82;21000;-74
2021/12/28 06:07:19;;;;;;;16.67;10.58;;;;;;;1.01;96.10;97162.44;1750095;81;21044;-75
2021/12/28 06:09:45;;;;;;;22.75;11.75;;;;;;;1.01;95.92;97167.23;1750171;82;21025;-74
2021/12/28 06:12:12;;;;;;;20.65;11.48;;;;;;;0.97;94.78;97169.84;1750257;81;21410;-77
2021/12/28 06:14:38;;;;;;;20.27;12.70;;;;;;;0.94;95.65;97173.76;1778197;80;21399;-75
2021/12/28 06:17:05;;;;;;;22.35;12.53;;;;;;;0.93;95.45;97183.34;1780905;80;21028;-75
2021/12/28 06:19:31;;;;;;;21.12;12.35;;;;;;;0.92;95.75;97180.31;1780970;80;20973;-75
2021/12/28 06:21:58;;;;;;;16.23;10.75;;;;;;;0.90;95.46;97178.12;1780821;80;21403;-76
2021/12/28 06:24:24;;;;;;;19.25;11.60;;;;;;;0.75;93.98;97179.92;1777749;80;21135;-76
2021/12/28 06:26:51;;;;;;;22.25;12.53;;;;;;;0.72;94.75;97184.29;1765718;79;20966;-76
2021/12/28 06:29:18;;;;;;;19.23;12.07;;;;;;;0.70;95.14;97188.66;1782150;80;21023;-76
2021/12/28 06:31:45;;;;;;;18.45;11.97;;;;;;;0.67;94.84;97192.14;1773497;81;20994;-76
2021/12/28 06:34:12;;;;;;;22.00;13.20;;;;;;;0.66;94.54;97194.30;1773482;81;21456;-76
2021/12/28 06:36:39;;;;;;;20.35;13.15;;;;;;;0.63;94.92;97193.87;1769419;81;21421;-76
2021/12/28 06:39:06;;;;;;;19.75;12.23;;;;;;;0.66;95.14;97200.81;1745436;82;21028;-77
2021/12/28 06:41:33;;;;;;;18.65;11.68;;;;;;;0.65;95.41;97197.36;1737823;82;21021;-76
2021/12/28 06:43:59;;;;;;;18.30;10.98;;;;;;;0.68;95.62;97204.73;1737104;82;21076;-76
2021/12/28 06:46:26;;;;;;;22.40;12.00;;;;;;;0.73;95.79;97199.06;1737045;82;21033;-76
2021/12/28 06:48:52;;;;;;;18.23;11.22;;;;;;;0.76;95.59;97200.36;1737491;81;21388;-76
2021/12/28 06:51:19;;;;;;;18.80;10.85;;;;;;;0.77;95.71;97191.66;1736528;83;21153;-76
2021/12/28 06:53:46;;;;;;;18.75;11.63;;;;;;;0.79;95.77;97191.23;1736905;82;21455;-76
2021/12/28 06:56:13;;;;;;;15.78;9.60;;;;;;;0.85;95.86;97192.52;1736762;83;21467;-76
2021/12/28 06:58:40;;;;;;;12.78;8.50;;;;;;;0.84;95.53;97185.56;1763773;81;21018;-76
2021/12/28 07:01:07;;;;;;;11.70;8.30;;;;;;;0.87;95.77;97195.13;1767269;80;21037;-76
2021/12/28 07:03:34;;;;;;;12.58;7.97;;;;;;;0.91;95.58;97187.69;1767071;81;21415;-76
2021/12/28 07:06:02;;;;;;;10.03;6.70;;;;;;;0.91;95.64;97190.30;1752503;81;21010;-77
2021/12/28 07:08:29;;;;;;;11.93;7.20;;;;;;;0.90;95.46;97188.14;1736731;82;21076;-77
2021/12/28 07:10:55;;;;;;;10.60;7.78;;;;;;;0.89;95.04;97186.41;1736740;83;21029;-77
2021/12/28 07:13:21;;;;;;;13.00;7.87;;;;;;;0.90;95.43;97192.48;1736689;82;21400;-77
2021/12/28 07:15:48;;;;;;;13.80;8.88;;;;;;;0.91;95.52;97192.48;1747840;81;21062;-77
2021/12/28 07:18:14;;;;;;;17.50;10.90;;;;;;;0.89;95.33;97192.94;1767160;81;20958;-77
2021/12/28 07:20:42;;;;;;;16.55;10.50;;;;;;;0.88;95.59;97196.39;1767133;81;21013;-77
2021/12/28 07:23:08;;;;;;;18.12;11.25;;;;;;;0.91;95.75;97200.73;1766371;81;21387;-77
2021/12/28 07:25:35;;;;;;;18.85;12.18;;;;;;;0.95;95.77;97195.09;1762797;81;20942;-76
2021/12/28 07:28:01;;;;;;;17.73;11.22;;;;;;;0.97;95.58;97192.91;1766282;81;20973;-77
2021/12/28 07:30:28;;;;;;;19.40;10.88;;;;;;;1.02;95.47;97200.70;1767136;80;21486;-77
2021/12/28 07:32:55;;;;;;;18.10;10.85;;;;;;;1.12;95.91;97200.23;1766730;80;21045;-77
2021/12/28 07:35:22;;;;;;;16.60;11.10;;;;;;;1.18;95.87;97195.86;1796109;80;21395;-77
2021/12/28 07:37:49;;;;;;;16.40;9.48;;;;;;;1.25;95.71;97192.75;1798502;80;20959;-77
2021/12/28 07:40:15;;;;;;;13.88;8.50;;;;;;;1.26;95.52;97191.90;1777494;80;21073;-77
2021/12/28 07:42:42;;;;;;;14.40;9.20;;;;;;;1.34;95.88;97197.08;1764618;81;21005;-77
2021/12/28 07:45:12;;;;;;;15.48;9.30;;;;;;;1.41;95.82;97196.60;1738560;81;21464;-77
2021/12/28 07:47:41;;;;;;;13.40;8.80;;;;;;;1.44;95.64;97183.09;1698885;84;21052;-77
2021/12/28 07:50:12;;;;;;;13.40;8.50;;;;;;;1.41;95.14;97184.39;1698965;84;21068;-76
2021/12/28 07:52:39;;;;;;;12.33;8.43;;;;;;;1.44;95.93;97171.33;1679832;84;21004;-77
2021/12/28 07:55:08;;;;;;;18.07;10.85;;;;;;;1.51;95.67;97185.65;1695465;83;21101;-76
2021/12/28 07:57:35;;;;;;;21.87;11.15;;;;;;;1.55;95.74;97188.67;1685056;85;21061;-77
2021/12/28 08:00:07;;;;;;;17.48;10.82;;;;;;;1.54;95.23;97193.02;1672793;85;21447;-76
2021/12/28 08:02:35;;;;;;;22.00;12.13;;;;;;;1.54;94.42;97195.63;1692063;84;21073;-76
2021/12/28 08:05:03;;;;;;;19.67;12.28;;;;;;;1.52;94.76;97190.87;1744622;81;20963;-76
2021/12/28 08:07:29;;;;;;;25.30;13.72;;;;;;;1.54;95.22;97194.78;1732300;81;21481;-76
2021/12/28 08:09:55;;;;;;;20.90;12.23;;;;;;;1.58;95.40;97192.58;1750455;81;21025;-76
2021/12/28 08:12:22;;;;;;;17.87;10.58;;;;;;;1.62;95.15;97194.73;1743453;81;20965;-76
2021/12/28 08:14:48;;;;;;;18.52;10.60;;;;;;;1.60;94.67;97194.73;1753527;81;21037;-76
2021/12/28 08:17:15;;;;;;;16.62;9.48;;;;;;;1.60;94.26;97192.12;1746618;81;21474;-76
2021/12/28 08:19:41;;;;;;;16.42;9.90;;;;;;;1.58;94.66;97196.50;1694238;84;21026;-76
2021/12/28 08:22:08;;;;;;;18.32;10.55;;;;;;;1.62;94.67;97205.17;1693490;84;21052;-76
2021/12/28 08:24:34;;;;;;;19.95;10.93;;;;;;;1.60;93.78;97201.69;1685215;83;21374;-76
2021/12/28 08:27:02;;;;;;;17.95;10.53;;;;;;;1.58;94.30;97205.19;1747708;79;21021;-76
2021/12/28 08:29:28;;;;;;;20.57;12.20;;;;;;;1.60;94.50;97197.77;1763634;81;21033;-76
2021/12/28 08:31:55;;;;;;;25.32;12.53;;;;;;;1.61;93.97;97202.14;1764453;81;20986;-77
2021/12/28 08:34:21;;;;;;;20.68;12.18;;;;;;;1.60;94.38;97198.65;1764456;81;20958;-77
2021/12/28 08:36:48;;;;;;;23.27;13.88;;;;;;;1.63;94.23;97202.98;1763375;80;20990;-77
2021/12/28 08:39:15;;;;;;;23.07;13.83;;;;;;;1.64;93.96;97204.71;1754912;81;21060;-76
2021/12/28 08:41:41;;;;;;;25.30;14.78;;;;;;;1.64;94.28;97202.10;1748532;80;21021;-77
2021/12/28 08:44:08;;;;;;;23.30;14.53;;;;;;;1.64;94.23;97210.81;1741037;81;21001;-77
2021/12/28 08:46:34;;;;;;;26.82;16.90;;;;;;;1.67;94.04;97208.62;1739318;81;21463;-78
2021/12/28 08:49:01;;;;;;;24.43;14.43;;;;;;;1.68;94.17;97201.20;1739687;81;21021;-78
2021/12/28 08:51:27;;;;;;;23.50;15.20;;;;;;;1.67;94.08;97201.63;1739468;82;21375;-78
2021/12/28 08:53:54;;;;;;;23.25;14.90;;;;;;;1.70;93.92;97193.79;1744658;81;20981;-78
2021/12/28 08:56:20;;;;;;;25.92;15.40;;;;;;;1.68;93.73;97192.95;1758109;81;21498;-77
2021/12/28 08:58:47;;;;;;;25.23;16.02;;;;;;;1.69;93.67;97193.80;1739355;82;20981;-77
2021/12/28 09:01:13;;;;;;;30.65;16.52;;;;;;;1.68;93.41;97195.55;1739216;82;21037;-77
2021/12/28 09:03:40;;;;;;;28.90;17.60;;;;;;;1.68;93.51;97189.03;1740280;81;21061;-77
2021/12/28 09:06:06;;;;;;;25.55;15.53;;;;;;;1.69;93.58;97199.02;1753994;80;20938;-75
2021/12/28 09:08:33;;;;;;;24.23;14.07;;;;;;;1.72;93.60;97193.78;1747049;82;20970;-76
2021/12/28 09:11:01;;;;;;;18.32;12.35;;;;;;;1.75;92.84;97192.47;1710852;84;21016;-76
2021/12/28 09:13:27;;;;;;;19.12;12.30;;;;;;;1.77;93.38;97188.09;1763553;80;20970;-76
2021/12/28 09:15:54;;;;;;;17.95;12.28;;;;;;;1.80;93.61;97183.27;1767266;79;21453;-76
2021/12/28 09:18:20;;;;;;;16.82;11.80;;;;;;;1.83;93.51;97182.80;1776848;80;21021;-76
2021/12/28 09:20:47;;;;;;;16.48;10.88;;;;;;;1.88;93.49;97193.66;1767797;80;20986;-76
2021/12/28 09:23:14;;;;;;;16.07;10.15;;;;;;;1.90;93.31;97199.30;1741692;81;21445;-76
2021/12/28 09:25:41;;;;;;;16.55;9.98;;;;;;;1.93;93.50;97204.52;1746745;80;21002;-76
2021/12/28 09:28:09;;;;;;;15.85;10.63;;;;;;;1.91;91.17;97202.80;1754170;80;21013;-76
2021/12/28 09:30:38;;;;;;;15.83;10.45;;;;;;;1.89;92.16;97190.16;1772349;80;21040;-76
2021/12/28 09:33:04;;;;;;;16.23;11.12;;;;;;;1.95;92.99;97199.28;1768158;80;21089;-75
2021/12/28 09:35:31;;;;;;;15.48;10.25;;;;;;;2.00;93.59;97202.73;1755292;80;21013;-76
2021/12/28 09:37:58;;;;;;;14.63;9.75;;;;;;;2.01;92.73;97203.58;1752422;80;21000;-75
2021/12/28 09:40:24;;;;;;;15.30;10.00;;;;;;;2.04;93.56;97195.72;1761753;80;20993;-76
2021/12/28 09:42:51;;;;;;;15.58;10.43;;;;;;;2.05;93.35;97195.71;1755635;81;21718;-76
2021/12/28 09:45:18;;;;;;;17.00;10.38;;;;;;;2.06;93.28;97200.05;1769503;80;20973;-76
2021/12/28 09:47:44;;;;;;;18.23;10.98;;;;;;;2.08;93.16;97190.90;1772618;80;21340;-76
2021/12/28 09:50:16;;;;;;;16.82;10.38;;;;;;;2.06;93.00;97199.17;1760056;80;21004;-76
2021/12/28 09:52:45;;;;;;;17.52;9.60;;;;;;;2.04;92.77;97199.18;1747495;81;21407;-76
2021/12/28 09:55:14;;;;;;;15.85;10.30;;;;;;;2.13;93.33;97201.30;1739136;82;21005;-76
2021/12/28 09:57:41;;;;;;;16.85;10.78;;;;;;;2.17;92.87;97193.86;1739798;81;21022;-76
2021/12/28 10:00:11;;;;;;;17.00;10.32;;;;;;;2.15;92.96;97204.79;1739510;82;21371;-76
2021/12/28 10:02:38;;;;;;;14.50;10.43;;;;;;;2.10;92.35;97204.37;1739308;82;21455;-76
2021/12/28 10:05:17;;;;;;;28.67;17.80;;;;;;;2.12;92.78;97206.98;1741117;80;20974;-76
2021/12/28 10:07:54;;;;;;;17.32;12.07;;;;;;;2.09;92.69;97203.96;1761809;80;20934;-75
2021/12/28 10:10:19;;;;;;;17.40;11.08;;;;;;;2.08;92.08;97196.97;1770977;80;20958;-75
2021/12/28 10:12:53;;;;;;;19.00;11.33;;;;;;;2.09;92.53;97201.78;1774920;80;21024;-75
2021/12/28 10:15:24;;;;;;;18.65;12.20;;;;;;;2.11;92.72;97195.66;1764930;80;21033;-75
2021/12/28 10:17:55;;;;;;;18.02;12.15;;;;;;;2.10;92.23;97190.43;1766950;79;21494;-75
2021/12/28 10:20:36;;;;;;;15.55;10.80;;;;;;;2.10;92.43;97187.82;1716429;83;20982;-75
2021/12/28 10:23:06;;;;;;;15.50;10.15;;;;;;;2.06;91.61;97189.60;1721270;82;21047;-75
2021/12/28 10:25:50;;;;;;;15.83;10.25;;;;;;;1.97;91.51;97194.47;1775673;79;21441;-75
2021/12/28 10:28:21;;;;;;;15.90;11.25;;;;;;;1.93;91.94;97194.49;1759264;81;20989;-75
2021/12/28 10:30:52;;;;;;;16.30;10.43;;;;;;;1.95;92.25;97192.75;1751786;80;21367;-75
2021/12/28 10:33:24;;;;;;;16.75;11.03;;;;;;;1.97;91.63;97177.48;1753916;81;21044;-75
2021/12/28 10:35:58;;;;;;;20.00;11.50;;;;;;;2.03;92.28;97187.00;1755079;81;21443;-75
2021/12/28 10:38:32;;;;;;;18.80;11.75;;;;;;;2.05;91.63;97193.10;1747659;81;21407;-77
2021/12/28 10:41:09;;;;;;;18.42;12.55;;;;;;;2.04;92.10;97190.49;1739872;81;21019;-75
2021/12/28 10:43:39;;;;;;;20.05;11.90;;;;;;;2.02;92.10;97184.39;1736692;83;21045;-76
2021/12/28 10:46:13;;;;;;;17.25;11.88;;;;;;;2.03;92.26;97166.55;1747402;80;21080;-75
2021/12/28 10:48:49;;;;;;;19.12;12.33;;;;;;;2.01;91.91;97178.32;1766846;80;20994;-75
2021/12/28 10:51:21;;;;;;;17.48;11.70;;;;;;;2.02;91.71;97166.98;1764813;81;21041;-76
2021/12/28 10:54:06;;;;;;;16.30;11.68;;;;;;;2.03;92.01;97156.09;1754807;81;20993;-75
2021/12/28 10:56:34;;;;;;;16.30;10.65;;;;;;;2.03;91.96;97155.64;1754741;81;21010;-75
2021/12/28 10:59:02;;;;;;;21.15;13.05;;;;;;;1.96;90.67;97153.52;1752667;81;21024;-75
2021/12/28 11:01:33;;;;;;;17.37;10.88;;;;;;;1.95;91.03;97143.95;1754166;81;20957;-75
2021/12/28 11:04:11;;;;;;;17.85;11.80;;;;;;;1.86;90.45;97144.02;1750293;80;20997;-75
2021/12/28 11:06:45;;;;;;;16.55;11.05;;;;;;;1.85;91.09;97157.98;1758760;80;20974;-74
2021/12/28 11:09:16;;;;;;;17.02;11.10;;;;;;;1.75;90.55;97158.94;1761728;79;21546;-74
2021/12/28 11:11:43;;;;;;;17.30;10.80;;;;;;;1.76;91.28;97156.73;1697514;82;20997;-74
2021/12/28 11:14:14;;;;;;;19.82;11.65;;;;;;;1.82;91.61;97160.60;1694712;83;20961;-74
2021/12/28 11:16:43;;;;;;;16.80;11.43;;;;;;;1.90;91.44;97161.41;1720598;82;21009;-76
2021/12/28 11:19:11;;;;;;;18.65;11.90;;;;;;;1.94;91.30;97157.90;1691522;82;21073;-77
2021/12/28 11:21:42;;;;;;;25.45;12.82;;;;;;;1.95;91.07;97166.16;1724013;82;20977;-75
2021/12/28 11:24:15;;;;;;;21.90;13.45;;;;;;;1.99;91.71;97159.16;1693200;83;20989;-77
2021/12/28 11:26:46;;;;;;;27.10;15.23;;;;;;;2.09;91.92;97163.88;1773610;79;20978;-78
2021/12/28 11:29:20;;;;;;;25.75;15.20;;;;;;;2.16;91.77;97157.69;1762764;80;20994;-77
2021/12/28 11:31:58;;;;;;;24.12;14.95;;;;;;;2.23;92.12;97150.66;1778993;80;21056;-76
2021/12/28 11:34:38;;;;;;;23.00;14.83;;;;;;;2.32;92.31;97149.72;1761923;80;21411;-76
2021/12/28 11:37:10;;;;;;;22.45;15.28;;;;;;;2.38;92.20;97140.50;1754362;80;20981;-75
2021/12/28 11:39:45;;;;;;;20.77;13.53;;;;;;;2.42;92.60;97147.86;1764552;80;20954;-74
2021/12/28 11:42:14;;;;;;;20.05;13.18;;;;;;;2.37;89.89;97143.55;1769848;79;20961;-75